KOMH

Details ICAO KOMH
Name ORANGE CO
Region United States
Timezone America/New_York (UTC-4.0)
Plans Departing 0
Arriving 2
Stats Elevation 465 ft / 142 m (AMSL)
Location 38.247205° -78.045622°
Runways 1
Magnetic Variation 10.101° W
Sunrise 2018-05-26 09:54:52 UTC / 2018-05-26 05:54:52 Local
Sunset 2018-05-27 00:26:30 UTC / 2018-05-26 20:26:30 Local
Advertisement - Login to hide

Runways

ID Width Length Bearing (true) Bearing (mag) Surface Threshold Offset Overrun Length
07 75 ft / 23 m 3,193 ft / 973 m 65.72° 75.82° Asphalt 0 ft / 0 m 0 ft / 0 m
25 75 ft / 23 m 3,193 ft / 973 m 245.73° 255.83° Asphalt 0 ft / 0 m 0 ft / 0 m

Map

Weather


0- 5 10 15 20 25 30 35+ Temperature / ° C

Clouds and Precipitation
Forecast for 2018-05-26 18:00 UTC. Updated an hour ago

Ground ~20,000 ft ~40,000 ft Winds

METAR

KOMH 261835Z AUTO 20009KT 10SM CLR 30/21 A2986 RMK AO2 LTG DSNT N AND W

TAF

Not found

Frequencies

Recorded 118.07 MHz AWOS 3
Approach 132.85 MHz POTOMAC APP/DEP
Unicom 122.80 MHz CTAF/UNICOM
Warning: Do not use this data for real-world aviation or navigation. No guarantee of current accuracy is given.